createdAt,value
2018-03-16T00:01:38.175Z,25.73
2018-03-16T00:04:06.434Z,19.97
2018-03-16T00:06:36.198Z,23.00
2018-03-16T00:09:05.246Z,18.67
2018-03-16T00:11:35.237Z,23.27
2018-03-16T00:14:03.494Z,19.33
2018-03-16T00:16:31.758Z,19.67
2018-03-16T00:19:00.028Z,21.63
2018-03-16T00:21:29.044Z,25.50
2018-03-16T00:23:57.298Z,21.23
2018-03-16T00:26:26.368Z,22.70
2018-03-16T00:28:54.661Z,20.47
2018-03-16T00:31:22.940Z,21.40
2018-03-16T00:33:51.305Z,21.77
2018-03-16T00:36:19.594Z,24.97
2018-03-16T00:38:47.892Z,20.93
2018-03-16T00:41:16.280Z,22.97
2018-03-16T00:43:44.535Z,23.73
2018-03-16T00:46:12.898Z,21.97
2018-03-16T00:48:41.185Z,23.33
2018-03-16T00:51:09.497Z,21.73
2018-03-16T00:53:39.250Z,22.50
2018-03-16T00:56:07.531Z,23.70
2018-03-16T00:58:35.773Z,24.53
2018-03-16T01:01:04.051Z,25.03
2018-03-16T01:03:32.311Z,30.33
2018-03-16T01:06:00.597Z,24.40
2018-03-16T01:08:28.873Z,24.07
2018-03-16T01:10:57.257Z,23.67
2018-03-16T01:13:25.506Z,24.40
2018-03-16T01:15:53.769Z,25.10
2018-03-16T01:18:22.780Z,23.47
2018-03-16T01:20:51.811Z,22.50
2018-03-16T01:23:20.046Z,26.03
2018-03-16T01:25:49.074Z,23.70
2018-03-16T01:28:17.333Z,24.07
2018-03-16T01:30:46.384Z,25.43
2018-03-16T01:33:14.631Z,24.80
2018-03-16T01:35:42.894Z,23.03
2018-03-16T01:38:11.932Z,23.57
2018-03-16T01:40:40.182Z,23.37
2018-03-16T01:43:08.447Z,25.23
2018-03-16T01:45:37.463Z,30.00
2018-03-16T01:50:33.616Z,29.57
2018-03-16T01:53:14.462Z,24.40
2018-03-16T01:55:43.489Z,25.87
2018-03-16T01:58:11.751Z,22.80
2018-03-16T02:00:40.774Z,26.93
2018-03-16T02:03:09.054Z,23.83
2018-03-16T02:05:38.230Z,22.63
2018-03-16T02:08:06.494Z,23.77
2018-03-16T02:10:34.747Z,23.63
2018-03-16T02:13:03.027Z,28.30
2018-03-16T02:15:31.311Z,29.07
2018-03-16T02:17:59.574Z,24.90
2018-03-16T02:20:27.829Z,27.93
2018-03-16T02:22:56.995Z,27.97
2018-03-16T02:25:25.217Z,25.70
2018-03-16T02:27:53.522Z,26.03
2018-03-16T02:30:21.766Z,27.97
2018-03-16T02:32:50.034Z,31.50
2018-03-16T02:35:19.050Z,27.43
2018-03-16T02:37:47.319Z,24.97
2018-03-16T02:40:16.392Z,32.83
2018-03-16T02:42:44.631Z,29.70
2018-03-16T02:45:12.887Z,31.50
2018-03-16T02:47:41.147Z,33.63
2018-03-16T02:50:10.168Z,35.43
2018-03-16T02:52:38.427Z,26.73
2018-03-16T02:55:07.438Z,27.90
2018-03-16T02:57:35.715Z,32.60
2018-03-16T03:00:04.730Z,29.30
2018-03-16T03:02:33.016Z,30.87
2018-03-16T03:05:01.250Z,33.23
2018-03-16T03:07:29.521Z,32.23
2018-03-16T03:09:57.774Z,36.60
2018-03-16T03:12:26.045Z,32.03
2018-03-16T03:14:54.307Z,28.80
2018-03-16T03:17:22.573Z,29.10
2018-03-16T03:19:51.616Z,33.27
2018-03-16T03:22:19.871Z,31.83
2018-03-16T03:24:48.123Z,33.47
2018-03-16T03:27:17.180Z,34.83
2018-03-16T03:29:45.429Z,34.20
2018-03-16T03:32:13.732Z,34.20
2018-03-16T03:34:42.768Z,38.33
2018-03-16T03:37:11.004Z,32.00
2018-03-16T03:39:39.258Z,33.60
2018-03-16T03:42:08.312Z,35.57
2018-03-16T03:44:36.633Z,36.10
2018-03-16T03:47:05.657Z,35.90
2018-03-16T03:49:33.959Z,35.00
2018-03-16T03:52:02.217Z,34.00
2018-03-16T03:54:30.471Z,35.07
2018-03-16T03:56:59.618Z,32.60
2018-03-16T03:59:27.872Z,33.13
2018-03-16T04:01:56.138Z,34.87
2018-03-16T04:04:25.150Z,33.73
2018-03-16T04:06:53.413Z,33.10
2018-03-16T04:09:22.426Z,31.27
2018-03-16T04:11:50.702Z,36.20
2018-03-16T04:14:19.721Z,34.77
2018-03-16T04:16:47.991Z,34.20
2018-03-16T04:19:16.252Z,34.70
2018-03-16T04:21:45.279Z,37.77
2018-03-16T04:24:13.567Z,36.57
2018-03-16T04:26:41.835Z,37.10
2018-03-16T04:29:10.090Z,36.30
2018-03-16T04:31:39.179Z,34.30
2018-03-16T04:34:07.527Z,36.43
2018-03-16T04:36:35.797Z,37.97
2018-03-16T04:39:04.088Z,37.77
2018-03-16T04:41:32.431Z,44.00
2018-03-16T04:44:01.454Z,39.23
2018-03-16T04:46:29.703Z,34.77
2018-03-16T04:48:58.726Z,54.03
2018-03-16T04:51:26.991Z,43.80
2018-03-16T04:53:56.020Z,38.57
2018-03-16T04:56:24.265Z,42.50
2018-03-16T04:58:53.299Z,40.00
2018-03-16T05:01:21.588Z,50.53
2018-03-16T05:03:49.866Z,46.53
2018-03-16T05:06:18.126Z,47.27
2018-03-16T05:08:46.399Z,49.07
2018-03-16T05:11:14.961Z,48.77
2018-03-16T05:13:43.206Z,48.40
2018-03-16T05:16:11.456Z,45.70
2018-03-16T05:18:39.724Z,44.20
2018-03-16T05:21:07.971Z,39.13
2018-03-16T05:23:36.243Z,41.87
2018-03-16T05:26:04.486Z,42.43
2018-03-16T05:28:32.758Z,37.60
2018-03-16T05:31:01.001Z,40.50
2018-03-16T05:33:30.042Z,39.80
2018-03-16T05:35:58.300Z,36.10
2018-03-16T05:38:27.333Z,42.73
2018-03-16T05:40:55.586Z,36.03
2018-03-16T05:43:23.856Z,35.00
2018-03-16T05:45:52.903Z,37.97
2018-03-16T05:48:21.158Z,36.30
2018-03-16T05:50:49.487Z,37.03
2018-03-16T05:53:17.766Z,43.77
2018-03-16T05:55:46.028Z,35.60
2018-03-16T05:58:14.314Z,32.60
2018-03-16T06:00:42.570Z,36.07
2018-03-16T06:03:10.862Z,35.63
2018-03-16T06:05:39.389Z,34.80
2018-03-16T06:08:07.723Z,35.80
2018-03-16T06:10:35.974Z,35.57
2018-03-16T06:13:04.433Z,35.70
2018-03-16T06:15:32.686Z,34.60
2018-03-16T06:18:00.955Z,36.77
2018-03-16T06:20:29.218Z,37.47
2018-03-16T06:22:58.362Z,36.13
2018-03-16T06:25:26.633Z,37.03
2018-03-16T06:27:54.902Z,36.00
2018-03-16T06:30:23.156Z,38.63
2018-03-16T06:32:52.187Z,34.50
2018-03-16T06:35:20.456Z,35.97
2018-03-16T06:37:48.778Z,35.53
2018-03-16T06:40:17.027Z,34.50
2018-03-16T06:42:45.295Z,34.67
2018-03-16T06:45:16.346Z,33.73
2018-03-16T06:47:44.625Z,38.47
2018-03-16T06:50:12.880Z,36.57
2018-03-16T06:52:41.918Z,34.83
2018-03-16T06:55:10.408Z,36.33
2018-03-16T06:57:38.667Z,30.97
2018-03-16T07:00:06.915Z,34.23
2018-03-16T07:02:35.186Z,33.70
2018-03-16T07:05:03.438Z,34.03
2018-03-16T07:07:31.706Z,31.67
2018-03-16T07:09:59.968Z,34.97
2018-03-16T07:12:28.226Z,36.30
2018-03-16T07:14:57.251Z,32.63
2018-03-16T07:17:25.529Z,33.60
2018-03-16T07:19:54.338Z,33.33
2018-03-16T07:22:26.064Z,31.70
2018-03-16T07:24:55.097Z,33.60
2018-03-16T07:27:23.359Z,34.03
2018-03-16T07:29:51.609Z,29.27
2018-03-16T07:32:19.879Z,27.60
2018-03-16T07:34:48.125Z,24.90
2018-03-16T07:37:16.415Z,29.47
2018-03-16T07:39:44.674Z,27.53
2018-03-16T07:42:12.928Z,27.17
2018-03-16T07:44:41.970Z,27.63
2018-03-16T07:47:10.823Z,28.07
2018-03-16T07:49:39.853Z,31.33
2018-03-16T07:52:08.105Z,28.00
2018-03-16T07:54:37.137Z,25.37
2018-03-16T07:57:05.386Z,27.10
2018-03-16T07:59:34.409Z,21.17
2018-03-16T08:02:02.659Z,21.50
2018-03-16T08:04:31.692Z,24.13
2018-03-16T08:06:59.948Z,22.80
2018-03-16T08:09:28.213Z,26.03
2018-03-16T08:11:57.275Z,21.93
2018-03-16T08:14:25.491Z,23.10
2018-03-16T08:16:54.509Z,21.50
2018-03-16T08:19:22.851Z,24.10
2018-03-16T08:21:52.936Z,22.37
2018-03-16T08:24:21.291Z,23.47
2018-03-16T08:26:49.605Z,20.80
2018-03-16T08:29:17.900Z,20.40
2018-03-16T08:31:46.142Z,23.67
2018-03-16T08:34:14.430Z,20.70
2018-03-16T08:36:42.684Z,23.70
2018-03-16T08:39:11.775Z,23.53
2018-03-16T08:41:40.005Z,22.80
2018-03-16T08:44:08.270Z,20.20
2018-03-16T08:46:36.534Z,19.87
2018-03-16T08:49:08.024Z,21.90
2018-03-16T08:51:36.292Z,21.97
2018-03-16T08:54:04.592Z,23.23
2018-03-16T08:56:32.844Z,20.80
2018-03-16T08:59:01.106Z,22.73
2018-03-16T09:01:30.120Z,24.17
2018-03-16T09:03:58.392Z,24.70
2018-03-16T09:06:27.437Z,23.07
2018-03-16T09:08:55.698Z,20.77
2018-03-16T09:11:24.008Z,19.57
2018-03-16T09:13:52.273Z,23.47
2018-03-16T09:16:20.528Z,22.13
2018-03-16T09:18:49.802Z,18.63
2018-03-16T09:21:18.074Z,25.83
2018-03-16T09:23:46.342Z,25.00
2018-03-16T09:26:17.891Z,21.30
2018-03-16T09:28:46.150Z,21.77
2018-03-16T09:31:14.414Z,19.93
2018-03-16T09:33:42.679Z,20.90
2018-03-16T09:36:11.694Z,21.03
2018-03-16T09:38:40.014Z,23.07
2018-03-16T09:41:08.258Z,21.13
2018-03-16T09:43:36.570Z,22.40
2018-03-16T09:46:04.821Z,22.50
2018-03-16T09:48:33.100Z,22.30
2018-03-16T09:51:01.362Z,23.50
2018-03-16T09:53:33.250Z,21.27
2018-03-16T09:56:01.554Z,22.03
2018-03-16T09:58:29.834Z,24.20
2018-03-16T10:00:58.111Z,20.47
2018-03-16T10:03:26.431Z,18.63
2018-03-16T10:05:54.783Z,22.53
2018-03-16T10:08:23.972Z,22.17
2018-03-16T10:10:52.231Z,23.60
2018-03-16T10:13:21.360Z,24.03
2018-03-16T10:15:49.617Z,21.63
2018-03-16T10:18:17.894Z,20.57
2018-03-16T10:20:46.159Z,22.27
2018-03-16T10:23:15.191Z,21.63
2018-03-16T10:25:43.490Z,20.10
2018-03-16T10:28:11.885Z,20.57
2018-03-16T10:30:40.148Z,23.67
2018-03-16T10:33:08.421Z,19.60
2018-03-16T10:35:36.680Z,20.13
2018-03-16T10:38:04.956Z,22.63
2018-03-16T10:40:33.218Z,22.87
2018-03-16T10:43:02.283Z,20.37
2018-03-16T10:45:30.538Z,21.90
2018-03-16T10:47:58.790Z,20.00
2018-03-16T10:50:27.844Z,18.97
2018-03-16T10:52:56.304Z,19.37
2018-03-16T10:55:24.570Z,19.77
2018-03-16T10:57:52.827Z,21.33
2018-03-16T11:00:27.439Z,19.90
2018-03-16T11:03:03.208Z,19.87
2018-03-16T11:05:31.458Z,21.90
2018-03-16T11:08:04.631Z,17.60
2018-03-16T11:10:32.898Z,19.83
2018-03-16T11:13:01.163Z,19.33
2018-03-16T11:15:30.227Z,21.53
2018-03-16T11:17:58.490Z,17.10
2018-03-16T11:20:26.910Z,17.10
2018-03-16T11:22:55.177Z,20.37
2018-03-16T11:25:25.036Z,16.10
2018-03-16T11:27:53.306Z,18.17
2018-03-16T11:30:22.347Z,14.47
2018-03-16T11:32:50.604Z,16.23
2018-03-16T11:35:18.888Z,17.77
2018-03-16T11:37:47.151Z,16.63
2018-03-16T11:40:15.434Z,15.87
2018-03-16T11:42:44.457Z,14.63
2018-03-16T11:45:12.786Z,14.47
2018-03-16T11:47:41.054Z,13.23
2018-03-16T11:50:09.332Z,14.27
2018-03-16T11:52:37.585Z,13.87
2018-03-16T11:55:05.867Z,13.83
2018-03-16T11:57:34.261Z,12.00
2018-03-16T12:00:02.890Z,12.47
2018-03-16T12:02:31.137Z,13.30
2018-03-16T12:04:59.438Z,12.30
2018-03-16T12:07:27.702Z,11.77
2018-03-16T12:09:55.969Z,17.87
2018-03-16T12:12:24.249Z,27.20
2018-03-16T12:14:52.535Z,25.90
2018-03-16T12:17:20.801Z,20.33
2018-03-16T12:19:49.084Z,19.20
2018-03-16T12:22:17.341Z,15.70
2018-03-16T12:24:46.383Z,17.07
2018-03-16T12:27:14.638Z,16.73
2018-03-16T12:29:42.910Z,21.17
2018-03-16T12:32:11.170Z,18.20
2018-03-16T12:34:40.207Z,22.40
2018-03-16T12:37:08.454Z,18.03
2018-03-16T12:39:37.501Z,18.20
2018-03-16T12:42:05.759Z,16.63
2018-03-16T12:44:34.055Z,17.83
2018-03-16T12:47:03.027Z,19.20
2018-03-16T12:49:32.166Z,13.87
2018-03-16T12:52:00.444Z,16.70
2018-03-16T12:54:28.743Z,18.60
2018-03-16T12:56:56.982Z,16.07
2018-03-16T12:59:25.264Z,17.57
2018-03-16T13:01:53.535Z,17.40
2018-03-16T13:04:23.105Z,17.50
2018-03-16T13:06:51.362Z,17.47
2018-03-16T13:09:19.646Z,21.00
2018-03-16T13:11:47.939Z,16.43
2018-03-16T13:14:16.215Z,16.40
2018-03-16T13:16:44.475Z,14.97
2018-03-16T13:19:12.790Z,16.10
2018-03-16T13:21:41.022Z,15.03
2018-03-16T13:24:09.301Z,14.30
2018-03-16T13:26:38.348Z,16.30
2018-03-16T13:29:06.654Z,12.97
2018-03-16T13:31:34.903Z,14.43
2018-03-16T13:34:03.184Z,14.90
2018-03-16T13:36:31.462Z,12.83
2018-03-16T13:38:59.732Z,16.13
2018-03-16T13:41:28.119Z,14.87
2018-03-16T13:43:56.406Z,11.67
2018-03-16T13:46:24.658Z,15.10
2018-03-16T13:48:52.923Z,16.67
2018-03-16T13:51:21.951Z,13.97
2018-03-16T13:53:50.209Z,12.60
2018-03-16T13:56:19.234Z,17.03
2018-03-16T13:58:47.517Z,12.83
2018-03-16T14:01:15.770Z,13.50
2018-03-16T14:03:44.793Z,13.03
2018-03-16T14:06:13.050Z,14.30
2018-03-16T14:08:42.074Z,12.80
2018-03-16T14:11:10.403Z,14.37
2018-03-16T14:13:39.672Z,17.10
2018-03-16T14:16:07.991Z,17.30
2018-03-16T14:18:36.190Z,15.10
2018-03-16T14:21:05.335Z,17.80
2018-03-16T14:23:33.577Z,16.80
2018-03-16T14:26:01.854Z,18.27
2018-03-16T14:28:30.903Z,16.40
2018-03-16T14:30:59.187Z,19.30
2018-03-16T14:33:30.620Z,17.90
2018-03-16T14:35:59.207Z,18.60
2018-03-16T14:38:27.501Z,19.80
2018-03-16T14:40:55.773Z,16.40
2018-03-16T14:43:24.056Z,17.63
2018-03-16T14:45:52.313Z,15.93
2018-03-16T14:48:20.588Z,21.17
2018-03-16T14:50:48.870Z,19.10
2018-03-16T14:53:17.128Z,16.33
2018-03-16T14:55:46.521Z,17.70
2018-03-16T14:58:15.169Z,21.23
2018-03-16T15:00:43.606Z,20.13
2018-03-16T15:03:12.068Z,22.50
2018-03-16T15:05:41.162Z,18.07
2018-03-16T15:08:09.769Z,20.03
2018-03-16T15:10:38.459Z,20.60
2018-03-16T15:13:07.658Z,17.30
2018-03-16T15:15:36.490Z,17.60
2018-03-16T15:18:04.905Z,20.57
2018-03-16T15:20:34.289Z,21.67
2018-03-16T15:23:02.853Z,17.30
2018-03-16T15:25:31.924Z,20.03
2018-03-16T15:28:00.186Z,21.23
2018-03-16T15:30:28.470Z,23.83
2018-03-16T15:32:56.724Z,20.03
2018-03-16T15:35:24.992Z,27.73
2018-03-16T15:37:53.287Z,21.30
2018-03-16T15:40:22.403Z,22.60
2018-03-16T15:42:50.656Z,21.80
2018-03-16T15:45:18.935Z,19.07
2018-03-16T15:47:47.175Z,22.90
2018-03-16T15:50:15.449Z,23.20
2018-03-16T15:52:43.702Z,20.63
2018-03-16T15:55:11.962Z,26.30
2018-03-16T15:57:40.229Z,23.00
2018-03-16T16:00:09.250Z,21.77
2018-03-16T16:02:37.530Z,23.63
2018-03-16T16:05:05.809Z,21.87
2018-03-16T16:07:34.074Z,23.43
2018-03-16T16:10:03.112Z,23.97
2018-03-16T16:12:31.373Z,22.77
2018-03-16T16:14:59.633Z,24.80
2018-03-16T16:17:28.686Z,21.13
2018-03-16T16:19:56.954Z,24.93
2018-03-16T16:22:25.641Z,24.97
2018-03-16T16:24:54.726Z,17.80
2018-03-16T16:27:22.977Z,21.40
2018-03-16T16:29:52.024Z,18.60
2018-03-16T16:32:20.299Z,21.90
2018-03-16T16:34:48.596Z,17.27
2018-03-16T16:37:16.894Z,17.43
2018-03-16T16:39:45.275Z,13.77
2018-03-16T16:42:14.322Z,16.83
2018-03-16T16:44:43.356Z,12.80
2018-03-16T16:47:11.610Z,16.27
2018-03-16T16:49:39.924Z,16.27
2018-03-16T16:52:08.682Z,17.90
2018-03-16T16:54:36.962Z,15.10
2018-03-16T16:57:05.993Z,15.33
2018-03-16T16:59:34.256Z,13.87
2018-03-16T17:02:02.541Z,14.70
2018-03-16T17:04:30.810Z,15.17
2018-03-16T17:06:59.888Z,18.97
2018-03-16T17:09:28.176Z,13.40
2018-03-16T17:11:57.214Z,15.17
2018-03-16T17:14:25.463Z,16.00
2018-03-16T17:16:54.637Z,17.43
2018-03-16T17:19:22.851Z,17.97
2018-03-16T17:21:51.877Z,13.70
2018-03-16T17:24:20.150Z,15.37
2018-03-16T17:26:48.419Z,18.90
2018-03-16T17:29:16.767Z,16.27
2018-03-16T17:31:45.026Z,14.97
2018-03-16T17:34:13.287Z,15.93
2018-03-16T17:36:41.543Z,10.40
2018-03-16T17:39:09.790Z,17.50
2018-03-16T17:41:38.066Z,15.87
2018-03-16T17:44:06.326Z,13.57
2018-03-16T17:46:34.575Z,11.70
2018-03-16T17:49:02.855Z,13.23
2018-03-16T17:53:55.233Z,13.10
2018-03-16T17:56:23.484Z,9.77
2018-03-16T17:58:52.532Z,7.60
2018-03-16T18:01:20.839Z,6.37
2018-03-16T18:03:49.073Z,10.90
2018-03-16T18:06:18.154Z,9.40
2018-03-16T18:08:46.475Z,9.63
2018-03-16T18:11:14.752Z,10.37
2018-03-16T18:13:43.011Z,9.50
2018-03-16T18:16:11.266Z,10.40
2018-03-16T18:18:40.281Z,10.27
2018-03-16T18:21:08.552Z,8.70
2018-03-16T18:23:36.864Z,8.30
2018-03-16T18:26:05.146Z,8.73
2018-03-16T18:28:33.888Z,8.17
2018-03-16T18:31:02.151Z,9.30
2018-03-16T18:33:30.426Z,10.73
2018-03-16T18:35:58.766Z,8.10
2018-03-16T18:38:28.606Z,9.80
2018-03-16T18:40:56.887Z,10.70
2018-03-16T18:43:25.130Z,7.87
2018-03-16T18:45:54.161Z,9.67
2018-03-16T18:48:22.422Z,8.43
2018-03-16T18:50:50.693Z,9.70
2018-03-16T18:53:19.824Z,8.80
2018-03-16T18:55:48.097Z,7.90
2018-03-16T18:58:16.359Z,7.30
2018-03-16T19:00:44.710Z,8.93
2018-03-16T19:03:12.929Z,7.27
2018-03-16T19:05:41.230Z,7.27
2018-03-16T19:08:09.514Z,6.97
2018-03-16T19:10:38.842Z,10.60
2018-03-16T19:13:07.232Z,6.83
2018-03-16T19:15:35.824Z,8.10
2018-03-16T19:18:04.038Z,6.33
2018-03-16T19:20:33.092Z,6.60
2018-03-16T19:23:01.359Z,6.87
2018-03-16T19:25:29.616Z,7.97
2018-03-16T19:27:57.854Z,7.47
2018-03-16T19:30:26.125Z,7.57
2018-03-16T19:32:54.381Z,10.60
2018-03-16T19:35:22.629Z,7.37
2018-03-16T19:37:50.912Z,9.67
2018-03-16T19:40:19.151Z,9.13
2018-03-16T19:42:47.448Z,8.60
2018-03-16T19:45:15.699Z,9.33
2018-03-16T19:47:43.969Z,9.47
2018-03-16T19:50:12.212Z,9.33
2018-03-16T19:52:41.259Z,10.10
2018-03-16T19:55:09.494Z,7.80
2018-03-16T19:57:38.522Z,9.30
2018-03-16T20:00:06.817Z,9.10
2018-03-16T20:02:35.097Z,9.93
2018-03-16T20:05:03.375Z,9.50
2018-03-16T20:07:31.662Z,11.37
2018-03-16T20:09:59.964Z,10.17
2018-03-16T20:12:28.222Z,11.73
2018-03-16T20:14:56.544Z,11.70
2018-03-16T20:17:24.934Z,12.47
2018-03-16T20:19:53.172Z,10.37
2018-03-16T20:22:21.427Z,11.53
2018-03-16T20:24:49.719Z,11.80
2018-03-16T20:27:17.994Z,12.53
2018-03-16T20:29:46.232Z,11.87
2018-03-16T20:32:14.499Z,10.57
2018-03-16T20:34:42.747Z,14.00
2018-03-16T20:37:11.010Z,11.13
2018-03-16T20:39:39.277Z,13.57
2018-03-16T20:42:07.584Z,12.90
2018-03-16T20:44:35.830Z,11.90
2018-03-16T20:47:04.862Z,14.57
2018-03-16T20:49:33.128Z,14.47
2018-03-16T20:52:01.388Z,15.10
2018-03-16T20:54:29.639Z,13.00
2018-03-16T20:56:58.077Z,17.17
2018-03-16T20:59:26.341Z,18.50
2018-03-16T21:01:54.586Z,17.90
2018-03-16T21:04:24.343Z,16.07
2018-03-16T21:06:52.622Z,15.20
2018-03-16T21:09:21.642Z,18.33
2018-03-16T21:11:49.901Z,17.00
2018-03-16T21:14:18.186Z,18.97
2018-03-16T21:16:47.338Z,20.70
2018-03-16T21:19:15.589Z,19.67
2018-03-16T21:21:43.870Z,20.47
2018-03-16T21:24:12.114Z,21.00
2018-03-16T21:26:41.139Z,19.73
2018-03-16T21:29:09.406Z,22.03
2018-03-16T21:31:38.543Z,23.20
2018-03-16T21:34:06.807Z,19.13
2018-03-16T21:36:35.385Z,23.27
2018-03-16T21:39:03.631Z,20.43
2018-03-16T21:41:31.899Z,19.77
2018-03-16T21:44:00.158Z,20.67
2018-03-16T21:46:28.444Z,20.13
2018-03-16T21:48:56.719Z,23.57
2018-03-16T21:51:25.004Z,20.50
2018-03-16T21:53:53.665Z,22.27
2018-03-16T21:56:22.535Z,21.50
2018-03-16T21:58:51.554Z,21.73
2018-03-16T22:01:19.829Z,23.67
2018-03-16T22:03:48.129Z,27.40
2018-03-16T22:06:16.404Z,22.60
2018-03-16T22:08:45.280Z,24.17
2018-03-16T22:11:14.309Z,23.23
2018-03-16T22:13:42.612Z,24.67
2018-03-16T22:16:10.882Z,23.60
2018-03-16T22:18:39.155Z,25.60
2018-03-16T22:21:07.414Z,24.47
2018-03-16T22:23:36.451Z,24.20
2018-03-16T22:26:04.842Z,20.90
2018-03-16T22:28:33.376Z,23.37
2018-03-16T22:31:02.400Z,28.10
2018-03-16T22:33:30.661Z,24.27
2018-03-16T22:35:59.693Z,25.43
2018-03-16T22:38:27.980Z,25.57
2018-03-16T22:40:56.230Z,23.40
2018-03-16T22:43:25.090Z,30.87
2018-03-16T22:45:53.347Z,28.67
2018-03-16T22:48:21.612Z,26.03
2018-03-16T22:50:49.931Z,23.70
2018-03-16T22:53:18.192Z,23.60
2018-03-16T22:55:46.539Z,26.37
2018-03-16T22:58:15.153Z,24.53
2018-03-16T23:00:43.431Z,25.47
2018-03-16T23:03:11.738Z,21.83
2018-03-16T23:05:39.990Z,25.50
2018-03-16T23:08:08.275Z,24.73
2018-03-16T23:10:36.532Z,25.80
2018-03-16T23:13:05.046Z,27.30
2018-03-16T23:15:33.314Z,26.10
2018-03-16T23:18:01.575Z,25.00
2018-03-16T23:20:29.826Z,24.60
2018-03-16T23:22:58.888Z,22.17
2018-03-16T23:25:27.136Z,24.30
2018-03-16T23:27:55.398Z,25.27
2018-03-16T23:30:23.668Z,24.50
2018-03-16T23:32:52.715Z,23.47
2018-03-16T23:35:20.996Z,24.40
2018-03-16T23:37:49.262Z,23.67
2018-03-16T23:40:17.588Z,26.37
2018-03-16T23:42:45.838Z,26.23
2018-03-16T23:45:14.086Z,28.83
2018-03-16T23:47:42.343Z,28.47
2018-03-16T23:50:10.619Z,25.73
2018-03-16T23:52:38.962Z,22.43
2018-03-16T23:55:07.237Z,24.77
2018-03-16T23:57:35.514Z,23.10
